Normanton, Queensland

1:07 PM EST on August 01, 2014 (GMT +1000)
Normanton (YNTN) Elev 72 ft | 17.68 °S, 141.07 °E | Change Station

Current weather conditions updated 1 hour ago

Clear
Clear
86 °F
Feels Like 86 °F
N
9
Wind Variable Wind from SSE
Gusts mph

Today is forecast to be Warmer than yesterday.

Today
High -- | Low -- °F
--% Chance of Precip.
Yesterday
High -- | Low -- °F
Precip. -- in
7:02 AM 6:21 PM
Waxing Crescent, 23% visible
Pressure 30.01 in
Visibility -9999.0 miles
Clouds
Dew Point 45 °F
Humidity 23%
Rainfall 0.00 in
Snow Depth Not available.
UV Not available.
Pollen Not available.
Air Quality Not available.
Flu Activity Not available.
METAR YNTN 010200Z AUTO 16008KT //// // ////// 30/07 Q1016

More Conditions Fewer Conditions

Pressure 30.01 in
Visibility -9999.0 miles
Clouds
Dew Point 45 °F
Humidity 23%
Rainfall 0.00 in
Snow Depth Not available.
UV Not available.
Pollen Not available.
Air Quality Not available.
Flu Activity Not available.
METAR YNTN 010200Z AUTO 16008KT //// // ////// 30/07 Q1016

More Conditions Fewer Conditions

10-Day Weather Forecast

Almanac

Astronomy

Aug. 01, 2014 Rise Set
Actual Time 7:02 AM EST 6:21 PM EST
Civil Twilight 6:39 AM EST 6:44 PM EST
Nautical Twilight 6:13 AM EST 7:10 PM EST
Astronomical Twilight 5:47 AM EST 7:36 PM EST
Moon 10:06 AM EST 10:37 PM EST
Length of Visible Light 12h 05m
Length of Day
11h 19m
Tomorrow will be 0m 43s longer.
Waxing Crescent, 23% of the Moon is Illuminated
Jul 31
Waxing Crescent
Aug 3
First Quarter
Aug 10
Full
Aug 17
Last Quarter
Aug 25
New

Yesterday's Extremes

Country Highs Country Lows

Community

WunderPhotos

Upload Photos

1,739,497 photos uploaded!

Nearby

Snow Depth

Not available.

Earthquake Activity

City Distance Mag. Time & Date
No recent earthquake activity has been reported nearby.
Minimum magnitude displayed is 2.5.

Coastal Water Temperatures

Place Temperature
No Stations Reporting

Nearby Weather Stations

There are no personal weather stations in this area.